sensor_id;sensor_type;location;lat;lon;timestamp;P1;durP1;ratioP1;P2;durP2;ratioP2
10242;SDS011;5166;48.292;16.418;2022-09-03T00:01:17;17.00;;;15.70;;
10242;SDS011;5166;48.292;16.418;2022-09-03T00:03:21;15.40;;;14.57;;
10242;SDS011;5166;48.292;16.418;2022-09-03T00:05:24;15.03;;;14.13;;
10242;SDS011;5166;48.292;16.418;2022-09-03T00:07:29;16.60;;;15.57;;
10242;SDS011;5166;48.292;16.418;2022-09-03T00:09:33;15.63;;;14.73;;
10242;SDS011;5166;48.292;16.418;2022-09-03T00:11:37;16.37;;;15.37;;
10242;SDS011;5166;48.292;16.418;2022-09-03T00:13:41;14.23;;;13.33;;
10242;SDS011;5166;48.292;16.418;2022-09-03T00:15:41;17.30;;;15.70;;
10242;SDS011;5166;48.292;16.418;2022-09-03T00:17:45;17.00;;;16.00;;
10242;SDS011;5166;48.292;16.418;2022-09-03T00:19:51;17.17;;;16.17;;
10242;SDS011;5166;48.292;16.418;2022-09-03T00:21:54;14.40;;;13.60;;
10242;SDS011;5166;48.292;16.418;2022-09-03T00:23:56;15.83;;;14.83;;
10242;SDS011;5166;48.292;16.418;2022-09-03T00:26:00;15.90;;;15.00;;
10242;SDS011;5166;48.292;16.418;2022-09-03T00:28:03;15.20;;;14.20;;
10242;SDS011;5166;48.292;16.418;2022-09-03T00:30:09;15.90;;;14.80;;
10242;SDS011;5166;48.292;16.418;2022-09-03T00:32:12;16.60;;;15.60;;
10242;SDS011;5166;48.292;16.418;2022-09-03T00:34:15;18.17;;;16.93;;
10242;SDS011;5166;48.292;16.418;2022-09-03T00:36:18;15.17;;;14.27;;
10242;SDS011;5166;48.292;16.418;2022-09-03T00:38:21;17.13;;;16.00;;
10242;SDS011;5166;48.292;16.418;2022-09-03T00:40:37;15.00;;;14.10;;
10242;SDS011;5166;48.292;16.418;2022-09-03T00:42:40;14.37;;;13.53;;
10242;SDS011;5166;48.292;16.418;2022-09-03T00:44:47;16.70;;;15.67;;
10242;SDS011;5166;48.292;16.418;2022-09-03T00:46:51;15.23;;;14.23;;
10242;SDS011;5166;48.292;16.418;2022-09-03T00:48:58;18.80;;;17.60;;
10242;SDS011;5166;48.292;16.418;2022-09-03T00:51:09;16.67;;;15.70;;
10242;SDS011;5166;48.292;16.418;2022-09-03T00:53:12;15.03;;;14.10;;
10242;SDS011;5166;48.292;16.418;2022-09-03T00:55:18;17.70;;;16.70;;
10242;SDS011;5166;48.292;16.418;2022-09-03T00:57:26;15.33;;;14.43;;
10242;SDS011;5166;48.292;16.418;2022-09-03T00:59:32;17.70;;;16.57;;
10242;SDS011;5166;48.292;16.418;2022-09-03T01:01:35;16.80;;;15.67;;
10242;SDS011;5166;48.292;16.418;2022-09-03T01:03:38;17.60;;;16.50;;
10242;SDS011;5166;48.292;16.418;2022-09-03T01:05:42;16.27;;;15.17;;
10242;SDS011;5166;48.292;16.418;2022-09-03T01:07:48;18.17;;;17.08;;
10242;SDS011;5166;48.292;16.418;2022-09-03T01:09:52;16.23;;;15.33;;
10242;SDS011;5166;48.292;16.418;2022-09-03T01:11:58;15.90;;;15.00;;
10242;SDS011;5166;48.292;16.418;2022-09-03T01:14:02;16.27;;;15.17;;
10242;SDS011;5166;48.292;16.418;2022-09-03T01:16:08;16.37;;;15.47;;
10242;SDS011;5166;48.292;16.418;2022-09-03T01:18:13;17.57;;;16.57;;
10242;SDS011;5166;48.292;16.418;2022-09-03T01:20:19;17.03;;;16.00;;
10242;SDS011;5166;48.292;16.418;2022-09-03T01:22:33;17.23;;;16.07;;
10242;SDS011;5166;48.292;16.418;2022-09-03T01:24:45;15.07;;;14.27;;
10242;SDS011;5166;48.292;16.418;2022-09-03T01:26:54;16.95;;;15.85;;
10242;SDS011;5166;48.292;16.418;2022-09-03T01:29:02;15.80;;;14.83;;
10242;SDS011;5166;48.292;16.418;2022-09-03T01:31:08;17.47;;;16.20;;
10242;SDS011;5166;48.292;16.418;2022-09-03T01:33:13;16.57;;;15.57;;
10242;SDS011;5166;48.292;16.418;2022-09-03T01:35:17;16.23;;;15.03;;
10242;SDS011;5166;48.292;16.418;2022-09-03T01:37:23;15.60;;;14.60;;
10242;SDS011;5166;48.292;16.418;2022-09-03T01:39:28;16.77;;;15.57;;
10242;SDS011;5166;48.292;16.418;2022-09-03T01:41:34;15.93;;;15.00;;
10242;SDS011;5166;48.292;16.418;2022-09-03T01:43:43;16.10;;;15.10;;
10242;SDS011;5166;48.292;16.418;2022-09-03T01:45:48;15.73;;;14.77;;
10242;SDS011;5166;48.292;16.418;2022-09-03T01:47:55;17.80;;;16.60;;
10242;SDS011;5166;48.292;16.418;2022-09-03T01:50:03;17.00;;;15.80;;
10242;SDS011;5166;48.292;16.418;2022-09-03T01:52:08;15.70;;;14.70;;
10242;SDS011;5166;48.292;16.418;2022-09-03T01:54:15;15.50;;;14.57;;
10242;SDS011;5166;48.292;16.418;2022-09-03T01:56:27;15.83;;;14.87;;
10242;SDS011;5166;48.292;16.418;2022-09-03T01:58:32;17.60;;;16.50;;
10242;SDS011;5166;48.292;16.418;2022-09-03T02:00:34;16.97;;;15.87;;
10242;SDS011;5166;48.292;16.418;2022-09-03T02:02:37;17.63;;;16.57;;
10242;SDS011;5166;48.292;16.418;2022-09-03T02:04:40;15.77;;;14.87;;
10242;SDS011;5166;48.292;16.418;2022-09-03T02:06:42;17.20;;;16.10;;
10242;SDS011;5166;48.292;16.418;2022-09-03T02:08:45;17.23;;;16.20;;
10242;SDS011;5166;48.292;16.418;2022-09-03T02:10:49;17.77;;;16.67;;
10242;SDS011;5166;48.292;16.418;2022-09-03T02:12:53;15.63;;;14.63;;
10242;SDS011;5166;48.292;16.418;2022-09-03T02:14:54;17.70;;;16.60;;
10242;SDS011;5166;48.292;16.418;2022-09-03T02:16:57;16.57;;;15.57;;
10242;SDS011;5166;48.292;16.418;2022-09-03T02:19:01;17.63;;;16.57;;
10242;SDS011;5166;48.292;16.418;2022-09-03T02:21:03;16.97;;;15.97;;
10242;SDS011;5166;48.292;16.418;2022-09-03T02:23:06;16.03;;;14.93;;
10242;SDS011;5166;48.292;16.418;2022-09-03T02:25:09;15.30;;;14.40;;
10242;SDS011;5166;48.292;16.418;2022-09-03T02:27:12;19.50;;;18.07;;
10242;SDS011;5166;48.292;16.418;2022-09-03T02:29:15;16.90;;;15.60;;
10242;SDS011;5166;48.292;16.418;2022-09-03T02:31:18;19.08;;;17.70;;
10242;SDS011;5166;48.292;16.418;2022-09-03T02:33:21;17.53;;;16.23;;
10242;SDS011;5166;48.292;16.418;2022-09-03T02:35:24;17.73;;;16.63;;
10242;SDS011;5166;48.292;16.418;2022-09-03T02:37:27;17.57;;;16.43;;
10242;SDS011;5166;48.292;16.418;2022-09-03T02:39:30;18.23;;;17.13;;
10242;SDS011;5166;48.292;16.418;2022-09-03T02:41:34;18.97;;;17.77;;
10242;SDS011;5166;48.292;16.418;2022-09-03T02:43:38;16.30;;;15.30;;
10242;SDS011;5166;48.292;16.418;2022-09-03T02:45:41;16.00;;;15.00;;
10242;SDS011;5166;48.292;16.418;2022-09-03T02:47:44;18.20;;;16.92;;
10242;SDS011;5166;48.292;16.418;2022-09-03T02:49:47;16.87;;;15.77;;
10242;SDS011;5166;48.292;16.418;2022-09-03T02:51:49;15.87;;;14.73;;
10242;SDS011;5166;48.292;16.418;2022-09-03T02:53:52;19.23;;;18.03;;
10242;SDS011;5166;48.292;16.418;2022-09-03T02:55:58;15.37;;;14.43;;
10242;SDS011;5166;48.292;16.418;2022-09-03T02:58:00;18.00;;;16.90;;
10242;SDS011;5166;48.292;16.418;2022-09-03T03:00:03;16.87;;;15.87;;
10242;SDS011;5166;48.292;16.418;2022-09-03T03:02:07;18.97;;;17.87;;
10242;SDS011;5166;48.292;16.418;2022-09-03T03:04:10;19.40;;;18.20;;
10242;SDS011;5166;48.292;16.418;2022-09-03T03:06:13;17.20;;;16.17;;
10242;SDS011;5166;48.292;16.418;2022-09-03T03:08:16;19.17;;;17.87;;
10242;SDS011;5166;48.292;16.418;2022-09-03T03:10:19;17.33;;;16.23;;
10242;SDS011;5166;48.292;16.418;2022-09-03T03:12:22;17.40;;;16.40;;
10242;SDS011;5166;48.292;16.418;2022-09-03T03:14:25;17.23;;;16.20;;
10242;SDS011;5166;48.292;16.418;2022-09-03T03:16:28;17.50;;;16.50;;
10242;SDS011;5166;48.292;16.418;2022-09-03T03:18:31;18.50;;;17.30;;
10242;SDS011;5166;48.292;16.418;2022-09-03T03:20:34;16.20;;;15.20;;
10242;SDS011;5166;48.292;16.418;2022-09-03T03:22:37;16.13;;;15.00;;
10242;SDS011;5166;48.292;16.418;2022-09-03T03:24:40;15.67;;;14.67;;
10242;SDS011;5166;48.292;16.418;2022-09-03T03:26:43;14.93;;;13.97;;
10242;SDS011;5166;48.292;16.418;2022-09-03T03:28:47;19.03;;;17.83;;
10242;SDS011;5166;48.292;16.418;2022-09-03T03:30:49;16.92;;;15.82;;
10242;SDS011;5166;48.292;16.418;2022-09-03T03:32:52;16.17;;;15.17;;
10242;SDS011;5166;48.292;16.418;2022-09-03T03:34:56;18.17;;;16.67;;
10242;SDS011;5166;48.292;16.418;2022-09-03T03:36:59;15.77;;;14.73;;
10242;SDS011;5166;48.292;16.418;2022-09-03T03:39:01;18.27;;;17.10;;
10242;SDS011;5166;48.292;16.418;2022-09-03T03:41:07;18.30;;;17.10;;
10242;SDS011;5166;48.292;16.418;2022-09-03T03:43:10;16.00;;;14.80;;
10242;SDS011;5166;48.292;16.418;2022-09-03T03:45:12;18.73;;;17.57;;
10242;SDS011;5166;48.292;16.418;2022-09-03T03:47:15;16.42;;;15.32;;
10242;SDS011;5166;48.292;16.418;2022-09-03T03:49:18;17.17;;;16.17;;
10242;SDS011;5166;48.292;16.418;2022-09-03T03:51:22;18.50;;;17.40;;
10242;SDS011;5166;48.292;16.418;2022-09-03T03:53:25;16.77;;;15.47;;
10242;SDS011;5166;48.292;16.418;2022-09-03T03:55:28;19.80;;;18.50;;
10242;SDS011;5166;48.292;16.418;2022-09-03T03:57:31;16.37;;;15.23;;
10242;SDS011;5166;48.292;16.418;2022-09-03T03:59:34;16.57;;;15.40;;
10242;SDS011;5166;48.292;16.418;2022-09-03T04:01:37;17.47;;;16.17;;
10242;SDS011;5166;48.292;16.418;2022-09-03T04:03:40;15.77;;;14.87;;
10242;SDS011;5166;48.292;16.418;2022-09-03T04:05:43;18.20;;;17.00;;
10242;SDS011;5166;48.292;16.418;2022-09-03T04:07:46;20.40;;;19.10;;
10242;SDS011;5166;48.292;16.418;2022-09-03T04:09:49;19.70;;;18.30;;
10242;SDS011;5166;48.292;16.418;2022-09-03T04:11:51;20.77;;;19.37;;
10242;SDS011;5166;48.292;16.418;2022-09-03T04:13:54;19.03;;;17.73;;
10242;SDS011;5166;48.292;16.418;2022-09-03T04:16:01;16.63;;;15.53;;
10242;SDS011;5166;48.292;16.418;2022-09-03T04:18:04;17.00;;;15.80;;
10242;SDS011;5166;48.292;16.418;2022-09-03T04:20:08;19.08;;;17.77;;
10242;SDS011;5166;48.292;16.418;2022-09-03T04:22:11;15.37;;;14.47;;
10242;SDS011;5166;48.292;16.418;2022-09-03T04:24:15;17.08;;;15.90;;
10242;SDS011;5166;48.292;16.418;2022-09-03T04:26:18;16.20;;;15.10;;
10242;SDS011;5166;48.292;16.418;2022-09-03T04:28:21;19.63;;;18.33;;
10242;SDS011;5166;48.292;16.418;2022-09-03T04:30:24;17.53;;;16.17;;
10242;SDS011;5166;48.292;16.418;2022-09-03T04:32:28;17.80;;;16.70;;
10242;SDS011;5166;48.292;16.418;2022-09-03T04:34:36;14.27;;;13.27;;
10242;SDS011;5166;48.292;16.418;2022-09-03T04:36:40;17.37;;;16.27;;
10242;SDS011;5166;48.292;16.418;2022-09-03T04:38:44;14.73;;;13.63;;
10242;SDS011;5166;48.292;16.418;2022-09-03T04:40:51;16.10;;;15.10;;
10242;SDS011;5166;48.292;16.418;2022-09-03T04:42:56;14.53;;;13.53;;
10242;SDS011;5166;48.292;16.418;2022-09-03T04:44:59;16.97;;;16.03;;
10242;SDS011;5166;48.292;16.418;2022-09-03T04:47:02;13.80;;;13.10;;
10242;SDS011;5166;48.292;16.418;2022-09-03T04:49:05;14.23;;;13.10;;
10242;SDS011;5166;48.292;16.418;2022-09-03T04:51:09;15.87;;;15.03;;
10242;SDS011;5166;48.292;16.418;2022-09-03T04:53:11;14.03;;;13.23;;
10242;SDS011;5166;48.292;16.418;2022-09-03T04:55:14;15.70;;;14.63;;
10242;SDS011;5166;48.292;16.418;2022-09-03T04:57:18;15.40;;;14.60;;
10242;SDS011;5166;48.292;16.418;2022-09-03T04:59:20;15.97;;;14.97;;
10242;SDS011;5166;48.292;16.418;2022-09-03T05:01:24;15.27;;;14.35;;
10242;SDS011;5166;48.292;16.418;2022-09-03T05:03:26;16.12;;;15.12;;
10242;SDS011;5166;48.292;16.418;2022-09-03T05:05:30;14.60;;;13.77;;
10242;SDS011;5166;48.292;16.418;2022-09-03T05:07:33;17.35;;;16.30;;
10242;SDS011;5166;48.292;16.418;2022-09-03T05:09:38;14.80;;;13.90;;
10242;SDS011;5166;48.292;16.418;2022-09-03T05:11:41;14.10;;;13.32;;
10242;SDS011;5166;48.292;16.418;2022-09-03T05:13:47;15.32;;;14.32;;
10242;SDS011;5166;48.292;16.418;2022-09-03T05:15:49;14.98;;;13.98;;
10242;SDS011;5166;48.292;16.418;2022-09-03T05:17:55;14.18;;;13.25;;
10242;SDS011;5166;48.292;16.418;2022-09-03T05:19:58;14.10;;;13.30;;
10242;SDS011;5166;48.292;16.418;2022-09-03T05:22:01;13.88;;;13.07;;
10242;SDS011;5166;48.292;16.418;2022-09-03T05:24:04;15.32;;;14.35;;
10242;SDS011;5166;48.292;16.418;2022-09-03T05:26:09;16.77;;;15.68;;
10242;SDS011;5166;48.292;16.418;2022-09-03T05:28:11;15.68;;;14.62;;
10242;SDS011;5166;48.292;16.418;2022-09-03T05:30:14;13.15;;;12.32;;
10242;SDS011;5166;48.292;16.418;2022-09-03T05:32:17;14.43;;;13.23;;
10242;SDS011;5166;48.292;16.418;2022-09-03T05:34:20;16.67;;;15.57;;
10242;SDS011;5166;48.292;16.418;2022-09-03T05:36:23;16.58;;;15.48;;
10242;SDS011;5166;48.292;16.418;2022-09-03T05:38:25;17.08;;;16.08;;
10242;SDS011;5166;48.292;16.418;2022-09-03T05:40:28;17.48;;;16.02;;
10242;SDS011;5166;48.292;16.418;2022-09-03T05:42:31;16.33;;;15.43;;
10242;SDS011;5166;48.292;16.418;2022-09-03T05:44:35;16.85;;;15.82;;
10242;SDS011;5166;48.292;16.418;2022-09-03T05:46:38;17.35;;;16.27;;
10242;SDS011;5166;48.292;16.418;2022-09-03T05:48:41;16.67;;;15.40;;
10242;SDS011;5166;48.292;16.418;2022-09-03T05:50:44;15.98;;;14.95;;
10242;SDS011;5166;48.292;16.418;2022-09-03T05:52:47;13.75;;;13.05;;
10242;SDS011;5166;48.292;16.418;2022-09-03T05:54:50;16.50;;;15.50;;
10242;SDS011;5166;48.292;16.418;2022-09-03T05:56:53;16.00;;;14.98;;
10242;SDS011;5166;48.292;16.418;2022-09-03T05:58:56;14.10;;;13.20;;
10242;SDS011;5166;48.292;16.418;2022-09-03T06:00:59;12.40;;;11.43;;
10242;SDS011;5166;48.292;16.418;2022-09-03T06:03:02;13.02;;;12.32;;
10242;SDS011;5166;48.292;16.418;2022-09-03T06:05:06;14.48;;;13.48;;
10242;SDS011;5166;48.292;16.418;2022-09-03T06:07:09;13.48;;;12.40;;
10242;SDS011;5166;48.292;16.418;2022-09-03T06:09:13;16.77;;;15.88;;
10242;SDS011;5166;48.292;16.418;2022-09-03T06:11:16;11.45;;;10.77;;
10242;SDS011;5166;48.292;16.418;2022-09-03T06:13:19;15.20;;;14.30;;
10242;SDS011;5166;48.292;16.418;2022-09-03T06:15:22;12.00;;;11.30;;
10242;SDS011;5166;48.292;16.418;2022-09-03T06:17:24;12.20;;;11.30;;
10242;SDS011;5166;48.292;16.418;2022-09-03T06:19:27;13.15;;;12.43;;
10242;SDS011;5166;48.292;16.418;2022-09-03T06:21:30;11.85;;;10.95;;
10242;SDS011;5166;48.292;16.418;2022-09-03T06:23:34;14.30;;;13.35;;
10242;SDS011;5166;48.292;16.418;2022-09-03T06:25:37;13.12;;;12.23;;
10242;SDS011;5166;48.292;16.418;2022-09-03T06:27:39;11.85;;;11.10;;
10242;SDS011;5166;48.292;16.418;2022-09-03T06:29:42;12.95;;;12.15;;
10242;SDS011;5166;48.292;16.418;2022-09-03T06:31:45;14.60;;;13.70;;
10242;SDS011;5166;48.292;16.418;2022-09-03T06:33:48;13.70;;;12.90;;
10242;SDS011;5166;48.292;16.418;2022-09-03T06:35:53;13.75;;;12.90;;
10242;SDS011;5166;48.292;16.418;2022-09-03T06:37:57;14.93;;;14.00;;
10242;SDS011;5166;48.292;16.418;2022-09-03T06:40:01;13.43;;;12.73;;
10242;SDS011;5166;48.292;16.418;2022-09-03T06:42:04;11.32;;;10.62;;
10242;SDS011;5166;48.292;16.418;2022-09-03T06:44:07;13.90;;;12.98;;
10242;SDS011;5166;48.292;16.418;2022-09-03T06:46:12;15.25;;;14.23;;
10242;SDS011;5166;48.292;16.418;2022-09-03T06:48:14;13.40;;;12.48;;
10242;SDS011;5166;48.292;16.418;2022-09-03T06:50:17;13.60;;;12.60;;
10242;SDS011;5166;48.292;16.418;2022-09-03T06:52:20;13.48;;;12.35;;
10242;SDS011;5166;48.292;16.418;2022-09-03T06:54:24;13.18;;;12.32;;
10242;SDS011;5166;48.292;16.418;2022-09-03T06:56:27;13.40;;;12.60;;
10242;SDS011;5166;48.292;16.418;2022-09-03T06:58:30;12.55;;;11.95;;
10242;SDS011;5166;48.292;16.418;2022-09-03T07:00:33;12.85;;;12.05;;
10242;SDS011;5166;48.292;16.418;2022-09-03T07:02:36;13.38;;;12.40;;
10242;SDS011;5166;48.292;16.418;2022-09-03T07:04:39;16.50;;;15.48;;
10242;SDS011;5166;48.292;16.418;2022-09-03T07:06:42;15.75;;;14.70;;
10242;SDS011;5166;48.292;16.418;2022-09-03T07:08:45;16.75;;;15.62;;
10242;SDS011;5166;48.292;16.418;2022-09-03T07:10:47;15.95;;;14.82;;
10242;SDS011;5166;48.292;16.418;2022-09-03T07:12:50;15.43;;;14.50;;
10242;SDS011;5166;48.292;16.418;2022-09-03T07:14:55;12.00;;;11.15;;
10242;SDS011;5166;48.292;16.418;2022-09-03T07:16:58;13.15;;;12.05;;
10242;SDS011;5166;48.292;16.418;2022-09-03T07:19:01;13.30;;;12.38;;
10242;SDS011;5166;48.292;16.418;2022-09-03T07:21:05;14.60;;;13.68;;
10242;SDS011;5166;48.292;16.418;2022-09-03T07:23:07;12.98;;;12.18;;
10242;SDS011;5166;48.292;16.418;2022-09-03T07:25:10;16.00;;;14.90;;
10242;SDS011;5166;48.292;16.418;2022-09-03T07:27:14;15.40;;;14.55;;
10242;SDS011;5166;48.292;16.418;2022-09-03T07:29:16;16.80;;;15.62;;
10242;SDS011;5166;48.292;16.418;2022-09-03T07:31:20;12.27;;;11.48;;
10242;SDS011;5166;48.292;16.418;2022-09-03T07:33:24;14.90;;;13.80;;
10242;SDS011;5166;48.292;16.418;2022-09-03T07:35:27;11.77;;;10.98;;
10242;SDS011;5166;48.292;16.418;2022-09-03T07:37:30;13.32;;;12.38;;
10242;SDS011;5166;48.292;16.418;2022-09-03T07:39:32;12.57;;;11.68;;
10242;SDS011;5166;48.292;16.418;2022-09-03T07:41:35;12.68;;;11.93;;
10242;SDS011;5166;48.292;16.418;2022-09-03T07:43:38;11.27;;;10.65;;
10242;SDS011;5166;48.292;16.418;2022-09-03T07:45:40;13.25;;;12.15;;
10242;SDS011;5166;48.292;16.418;2022-09-03T07:47:46;12.75;;;11.93;;
10242;SDS011;5166;48.292;16.418;2022-09-03T07:49:49;14.23;;;12.93;;
10242;SDS011;5166;48.292;16.418;2022-09-03T07:51:51;14.62;;;13.52;;
10242;SDS011;5166;48.292;16.418;2022-09-03T07:53:55;13.57;;;12.77;;
10242;SDS011;5166;48.292;16.418;2022-09-03T07:56:00;11.35;;;10.45;;
10242;SDS011;5166;48.292;16.418;2022-09-03T07:58:04;12.32;;;11.38;;
10242;SDS011;5166;48.292;16.418;2022-09-03T08:00:07;13.73;;;12.73;;
10242;SDS011;5166;48.292;16.418;2022-09-03T08:02:11;11.32;;;10.55;;
10242;SDS011;5166;48.292;16.418;2022-09-03T08:04:13;12.57;;;11.88;;
10242;SDS011;5166;48.292;16.418;2022-09-03T08:06:17;12.15;;;11.35;;
10242;SDS011;5166;48.292;16.418;2022-09-03T08:08:19;13.85;;;12.73;;
10242;SDS011;5166;48.292;16.418;2022-09-03T08:10:21;13.60;;;12.65;;
10242;SDS011;5166;48.292;16.418;2022-09-03T08:12:24;11.02;;;10.07;;
10242;SDS011;5166;48.292;16.418;2022-09-03T08:14:27;13.12;;;12.12;;
10242;SDS011;5166;48.292;16.418;2022-09-03T08:16:31;11.85;;;11.02;;
10242;SDS011;5166;48.292;16.418;2022-09-03T08:18:33;13.48;;;12.60;;
10242;SDS011;5166;48.292;16.418;2022-09-03T08:20:37;12.65;;;11.85;;
10242;SDS011;5166;48.292;16.418;2022-09-03T08:22:40;12.50;;;11.70;;
10242;SDS011;5166;48.292;16.418;2022-09-03T08:24:43;12.93;;;11.73;;
10242;SDS011;5166;48.292;16.418;2022-09-03T08:26:46;14.23;;;13.30;;
10242;SDS011;5166;48.292;16.418;2022-09-03T08:28:51;15.45;;;14.40;;
10242;SDS011;5166;48.292;16.418;2022-09-03T08:30:52;16.33;;;15.43;;
10242;SDS011;5166;48.292;16.418;2022-09-03T08:32:55;15.30;;;14.20;;
10242;SDS011;5166;48.292;16.418;2022-09-03T08:34:59;14.18;;;13.38;;
10242;SDS011;5166;48.292;16.418;2022-09-03T08:37:02;13.35;;;12.52;;
10242;SDS011;5166;48.292;16.418;2022-09-03T08:39:06;14.25;;;13.43;;
10242;SDS011;5166;48.292;16.418;2022-09-03T08:41:10;12.60;;;11.80;;
10242;SDS011;5166;48.292;16.418;2022-09-03T08:43:13;11.50;;;10.90;;
10242;SDS011;5166;48.292;16.418;2022-09-03T08:45:16;13.73;;;12.88;;
10242;SDS011;5166;48.292;16.418;2022-09-03T08:47:19;13.00;;;12.10;;
10242;SDS011;5166;48.292;16.418;2022-09-03T08:49:23;12.45;;;11.55;;
10242;SDS011;5166;48.292;16.418;2022-09-03T08:51:25;13.07;;;12.20;;
10242;SDS011;5166;48.292;16.418;2022-09-03T08:53:29;13.23;;;12.45;;
10242;SDS011;5166;48.292;16.418;2022-09-03T08:55:32;13.02;;;12.32;;
10242;SDS011;5166;48.292;16.418;2022-09-03T08:57:39;14.35;;;13.52;;
10242;SDS011;5166;48.292;16.418;2022-09-03T08:59:41;12.40;;;11.27;;
10242;SDS011;5166;48.292;16.418;2022-09-03T09:01:47;13.70;;;12.80;;
10242;SDS011;5166;48.292;16.418;2022-09-03T09:03:52;11.38;;;10.77;;
10242;SDS011;5166;48.292;16.418;2022-09-03T09:05:56;12.93;;;12.12;;
10242;SDS011;5166;48.292;16.418;2022-09-03T09:08:00;13.05;;;12.15;;
10242;SDS011;5166;48.292;16.418;2022-09-03T09:10:04;13.90;;;13.00;;
10242;SDS011;5166;48.292;16.418;2022-09-03T09:12:10;15.38;;;14.18;;
10242;SDS011;5166;48.292;16.418;2022-09-03T09:14:15;13.68;;;12.65;;
10242;SDS011;5166;48.292;16.418;2022-09-03T09:16:18;14.77;;;13.98;;
10242;SDS011;5166;48.292;16.418;2022-09-03T09:18:21;14.10;;;13.30;;
10242;SDS011;5166;48.292;16.418;2022-09-03T09:20:27;13.68;;;12.73;;
10242;SDS011;5166;48.292;16.418;2022-09-03T09:22:30;11.68;;;10.93;;
10242;SDS011;5166;48.292;16.418;2022-09-03T09:24:34;13.75;;;13.05;;
10242;SDS011;5166;48.292;16.418;2022-09-03T09:26:36;15.35;;;14.15;;
10242;SDS011;5166;48.292;16.418;2022-09-03T09:28:39;12.40;;;11.57;;
10242;SDS011;5166;48.292;16.418;2022-09-03T09:30:41;11.57;;;10.90;;
10242;SDS011;5166;48.292;16.418;2022-09-03T09:32:44;13.43;;;12.70;;
10242;SDS011;5166;48.292;16.418;2022-09-03T09:34:47;11.12;;;10.43;;
10242;SDS011;5166;48.292;16.418;2022-09-03T09:36:51;13.18;;;12.40;;
10242;SDS011;5166;48.292;16.418;2022-09-03T09:38:53;12.20;;;11.50;;
10242;SDS011;5166;48.292;16.418;2022-09-03T09:41:06;13.27;;;12.27;;
10242;SDS011;5166;48.292;16.418;2022-09-03T09:43:03;11.80;;;11.10;;
10242;SDS011;5166;48.292;16.418;2022-09-03T09:45:09;13.43;;;12.62;;
10242;SDS011;5166;48.292;16.418;2022-09-03T09:47:15;14.23;;;13.23;;
10242;SDS011;5166;48.292;16.418;2022-09-03T09:49:25;13.62;;;12.90;;
10242;SDS011;5166;48.292;16.418;2022-09-03T09:51:27;13.88;;;13.07;;
10242;SDS011;5166;48.292;16.418;2022-09-03T09:53:30;12.18;;;11.50;;
10242;SDS011;5166;48.292;16.418;2022-09-03T09:55:33;13.23;;;12.43;;
10242;SDS011;5166;48.292;16.418;2022-09-03T09:57:36;12.07;;;11.38;;
10242;SDS011;5166;48.292;16.418;2022-09-03T09:59:38;10.98;;;10.27;;
10242;SDS011;5166;48.292;16.418;2022-09-03T10:01:42;12.18;;;11.38;;
10242;SDS011;5166;48.292;16.418;2022-09-03T10:03:48;12.02;;;11.15;;
10242;SDS011;5166;48.292;16.418;2022-09-03T10:05:59;12.30;;;11.60;;
10242;SDS011;5166;48.292;16.418;2022-09-03T10:08:04;11.60;;;10.80;;
10242;SDS011;5166;48.292;16.418;2022-09-03T10:10:13;10.75;;;10.15;;
10242;SDS011;5166;48.292;16.418;2022-09-03T10:12:15;12.48;;;11.77;;
10242;SDS011;5166;48.292;16.418;2022-09-03T10:14:17;12.43;;;11.73;;
10242;SDS011;5166;48.292;16.418;2022-09-03T10:16:21;11.50;;;10.60;;
10242;SDS011;5166;48.292;16.418;2022-09-03T10:18:25;12.38;;;11.68;;
10242;SDS011;5166;48.292;16.418;2022-09-03T10:20:30;12.98;;;11.93;;
10242;SDS011;5166;48.292;16.418;2022-09-03T10:22:33;13.00;;;12.15;;
10242;SDS011;5166;48.292;16.418;2022-09-03T10:24:39;14.02;;;13.23;;
10242;SDS011;5166;48.292;16.418;2022-09-03T10:26:42;14.32;;;13.52;;
10242;SDS011;5166;48.292;16.418;2022-09-03T10:28:47;12.45;;;11.75;;
10242;SDS011;5166;48.292;16.418;2022-09-03T10:30:53;15.10;;;14.20;;
10242;SDS011;5166;48.292;16.418;2022-09-03T10:33:00;15.15;;;14.10;;
10242;SDS011;5166;48.292;16.418;2022-09-03T10:35:03;13.48;;;12.75;;
10242;SDS011;5166;48.292;16.418;2022-09-03T10:37:10;11.40;;;10.73;;
10242;SDS011;5166;48.292;16.418;2022-09-03T10:39:17;13.50;;;12.60;;
10242;SDS011;5166;48.292;16.418;2022-09-03T10:41:22;12.77;;;11.68;;
10242;SDS011;5166;48.292;16.418;2022-09-03T10:43:32;13.70;;;12.70;;
10242;SDS011;5166;48.292;16.418;2022-09-03T10:45:40;12.07;;;11.32;;
10242;SDS011;5166;48.292;16.418;2022-09-03T10:47:47;11.25;;;10.45;;
10242;SDS011;5166;48.292;16.418;2022-09-03T10:49:54;12.95;;;12.15;;
10242;SDS011;5166;48.292;16.418;2022-09-03T10:51:59;11.40;;;10.50;;
10242;SDS011;5166;48.292;16.418;2022-09-03T10:54:04;14.60;;;13.80;;
10242;SDS011;5166;48.292;16.418;2022-09-03T10:56:10;12.82;;;11.98;;
10242;SDS011;5166;48.292;16.418;2022-09-03T10:58:20;14.80;;;13.65;;
10242;SDS011;5166;48.292;16.418;2022-09-03T11:00:25;12.43;;;11.62;;
10242;SDS011;5166;48.292;16.418;2022-09-03T11:02:32;12.20;;;11.38;;
10242;SDS011;5166;48.292;16.418;2022-09-03T11:04:42;11.75;;;10.95;;
10242;SDS011;5166;48.292;16.418;2022-09-03T11:06:46;13.05;;;12.05;;
10242;SDS011;5166;48.292;16.418;2022-09-03T11:08:52;13.23;;;12.40;;
10242;SDS011;5166;48.292;16.418;2022-09-03T11:10:56;10.55;;;9.80;;
10242;SDS011;5166;48.292;16.418;2022-09-03T11:13:01;12.18;;;11.30;;
10242;SDS011;5166;48.292;16.418;2022-09-03T11:15:04;13.70;;;12.98;;
10242;SDS011;5166;48.292;16.418;2022-09-03T11:17:08;12.77;;;12.00;;
10242;SDS011;5166;48.292;16.418;2022-09-03T11:19:11;19.77;;;18.52;;
10242;SDS011;5166;48.292;16.418;2022-09-03T11:21:13;14.95;;;14.10;;
10242;SDS011;5166;48.292;16.418;2022-09-03T11:23:16;16.77;;;15.65;;
10242;SDS011;5166;48.292;16.418;2022-09-03T11:25:20;13.80;;;13.00;;
10242;SDS011;5166;48.292;16.418;2022-09-03T11:27:28;14.77;;;13.82;;
10242;SDS011;5166;48.292;16.418;2022-09-03T11:29:33;13.48;;;12.65;;
10242;SDS011;5166;48.292;16.418;2022-09-03T11:31:41;12.93;;;12.13;;
10242;SDS011;5166;48.292;16.418;2022-09-03T11:33:48;11.52;;;10.82;;
10242;SDS011;5166;48.292;16.418;2022-09-03T11:35:55;10.45;;;9.85;;
10242;SDS011;5166;48.292;16.418;2022-09-03T11:37:59;11.88;;;11.00;;
10242;SDS011;5166;48.292;16.418;2022-09-03T11:40:04;13.50;;;12.70;;
10242;SDS011;5166;48.292;16.418;2022-09-03T11:42:09;14.23;;;13.25;;
10242;SDS011;5166;48.292;16.418;2022-09-03T11:44:17;12.88;;;12.07;;
10242;SDS011;5166;48.292;16.418;2022-09-03T11:48:33;13.18;;;12.38;;
10242;SDS011;5166;48.292;16.418;2022-09-03T11:50:35;11.73;;;11.00;;
10242;SDS011;5166;48.292;16.418;2022-09-03T11:52:38;12.02;;;11.23;;
10242;SDS011;5166;48.292;16.418;2022-09-03T11:54:43;13.35;;;12.65;;
10242;SDS011;5166;48.292;16.418;2022-09-03T11:56:45;11.85;;;11.10;;
10242;SDS011;5166;48.292;16.418;2022-09-03T11:58:58;11.43;;;10.62;;
10242;SDS011;5166;48.292;16.418;2022-09-03T12:01:01;10.70;;;10.00;;
10242;SDS011;5166;48.292;16.418;2022-09-03T12:03:03;12.40;;;11.77;;
10242;SDS011;5166;48.292;16.418;2022-09-03T12:05:13;13.50;;;12.70;;
10242;SDS011;5166;48.292;16.418;2022-09-03T12:07:19;13.27;;;12.38;;